Time;durP1;ratioP1;P1;durP2;ratioP2;P2;SDS_P1;SDS_P2;PMS_P1;PMS_P2;Temp;Humidity;BMP_temperature;BMP_pressure;BME280_temperature;BME280_humidity;BME280_pressure;Samples;Min_cycle;Max_cycle;Signal;HPM_P1;HPM_P2
2022/07/25 00:02:02;;;;;;;11.50;9.93;;;;;;;22.44;64.91;100864.97;4908847;28;120457;-80
2022/07/25 00:04:27;;;;;;;12.25;9.77;;;;;;;22.41;65.06;100859.69;4914366;28;122106;-78
2022/07/25 00:06:53;;;;;;;12.27;9.25;;;;;;;22.40;64.84;100864.53;4911612;28;120373;-79
2022/07/25 00:09:19;;;;;;;12.57;10.40;;;;;;;22.41;64.43;100857.66;4911380;28;121157;-79
2022/07/25 00:11:45;;;;;;;12.65;9.90;;;;;;;22.40;64.55;100856.13;4907011;28;121290;-78
2022/07/25 00:14:10;;;;;;;11.38;9.50;;;;;;;22.40;64.83;100858.94;4930118;28;120549;-78
2022/07/25 00:17:15;;;;;;;13.70;10.05;;;;;;;22.38;64.86;100855.91;4872868;28;121025;-78
2022/07/25 00:19:40;;;;;;;12.25;10.00;;;;;;;22.40;64.09;100858.94;4863095;28;120546;-78
2022/07/25 00:22:06;;;;;;;11.40;9.05;;;;;;;22.40;64.33;100852.59;4872614;28;120732;-78
2022/07/25 00:24:32;;;;;;;10.52;8.88;;;;;;;22.39;64.61;100848.28;4885527;28;121319;-78
2022/07/25 00:26:58;;;;;;;12.15;9.00;;;;;;;22.38;64.73;100850.31;4893676;28;120629;-78
2022/07/25 00:29:23;;;;;;;11.77;9.32;;;;;;;22.41;64.34;100848.50;4888052;28;121433;-78
2022/07/25 00:31:49;;;;;;;10.98;9.85;;;;;;;22.41;64.83;100843.69;4888211;28;121536;-78
2022/07/25 00:34:15;;;;;;;11.45;8.75;;;;;;;22.44;64.22;100848.19;4889210;28;120672;-78
2022/07/25 00:36:40;;;;;;;10.25;9.13;;;;;;;22.46;64.60;100842.84;4888066;28;122339;-78
2022/07/25 00:39:06;;;;;;;12.20;9.35;;;;;;;22.46;64.57;100831.66;4888365;28;121442;-79
2022/07/25 00:41:32;;;;;;;11.43;9.40;;;;;;;22.51;64.56;100833.63;4886020;28;121059;-78
2022/07/25 00:43:58;;;;;;;14.00;10.20;;;;;;;22.53;64.15;100830.31;4883417;28;121338;-79
2022/07/25 00:46:24;;;;;;;10.90;9.80;;;;;;;22.56;64.04;100823.66;4876359;28;121231;-78
2022/07/25 00:48:50;;;;;;;14.02;10.52;;;;;;;22.58;64.01;100830.22;4946044;22;121357;-86
2022/07/25 00:51:16;;;;;;;10.70;9.13;;;;;;;22.61;64.32;100820.03;4930194;28;120691;-85
2022/07/25 00:53:41;;;;;;;12.65;10.00;;;;;;;22.62;64.42;100816.69;4891302;28;121234;-85
2022/07/25 00:56:07;;;;;;;11.05;9.77;;;;;;;22.62;64.21;100813.13;4882206;28;121611;-83
2022/07/25 00:58:34;;;;;;;12.05;9.35;;;;;;;22.58;64.55;100804.31;4901221;28;121186;-85
2022/07/25 01:01:01;;;;;;;12.50;10.38;;;;;;;22.63;64.30;100803.47;4893358;28;121030;-85
2022/07/25 01:03:27;;;;;;;11.38;9.55;;;;;;;22.68;64.36;100799.81;4909763;28;121914;-83
2022/07/25 01:05:53;;;;;;;12.63;10.35;;;;;;;22.68;63.34;100799.81;4885962;28;120986;-84
2022/07/25 01:08:20;;;;;;;12.25;10.13;;;;;;;22.71;63.99;100789.59;4895416;28;120937;-84
2022/07/25 01:10:48;;;;;;;14.63;9.85;;;;;;;22.67;63.82;100775.94;4876151;28;121304;-85
2022/07/25 01:13:14;;;;;;;12.15;10.82;;;;;;;22.69;63.68;100764.97;4880475;28;122077;-84
2022/07/25 01:15:41;;;;;;;13.13;11.70;;;;;;;22.67;63.86;100745.94;4874984;28;122731;-85
2022/07/25 01:18:07;;;;;;;16.48;11.32;;;;;;;22.73;63.82;100745.88;4891736;28;120762;-85
2022/07/25 01:20:33;;;;;;;13.48;11.73;;;;;;;22.75;63.61;100748.13;4888520;28;120889;-85
2022/07/25 01:22:59;;;;;;;12.07;10.88;;;;;;;22.73;63.47;100742.31;4904858;28;121174;-85
2022/07/25 01:25:26;;;;;;;12.57;11.27;;;;;;;22.76;63.44;100750.41;4912101;28;120941;-84
2022/07/25 01:27:52;;;;;;;12.45;11.18;;;;;;;22.71;63.07;100737.25;4894421;28;121862;-84
2022/07/25 01:30:20;;;;;;;14.77;11.70;;;;;;;22.78;63.31;100741.47;4897646;28;120716;-85
2022/07/25 01:32:46;;;;;;;17.48;12.70;;;;;;;22.80;62.72;100739.66;4903995;28;121394;-84
2022/07/25 01:35:15;;;;;;;11.73;10.50;;;;;;;22.83;63.09;100735.06;4903452;28;122582;-84
2022/07/25 01:37:41;;;;;;;15.15;12.45;;;;;;;22.84;63.22;100739.34;4892665;28;121102;-84
2022/07/25 01:40:07;;;;;;;15.23;13.23;;;;;;;22.88;62.89;100739.78;4908878;28;121038;-84
2022/07/25 01:42:33;;;;;;;14.82;12.23;;;;;;;22.82;62.17;100713.97;4897832;28;121215;-85
2022/07/25 01:45:00;;;;;;;15.20;12.95;;;;;;;22.92;62.77;100717.84;4909074;28;121365;-84
2022/07/25 01:47:40;;;;;;;14.32;12.32;;;;;;;22.90;63.08;100706.44;4894655;28;120967;-84
2022/07/25 01:50:07;;;;;;;14.18;12.32;;;;;;;22.92;62.81;100706.66;4890495;28;123611;-84
2022/07/25 01:52:34;;;;;;;15.80;13.43;;;;;;;22.92;62.65;100698.28;4889002;28;120781;-85
2022/07/25 01:55:00;;;;;;;14.82;13.10;;;;;;;22.91;62.44;100691.16;4929782;28;121373;-84
2022/07/25 01:57:28;;;;;;;14.75;12.57;;;;;;;22.84;62.46;100677.84;4929258;28;121417;-85
2022/07/25 01:59:53;;;;;;;13.07;11.68;;;;;;;22.89;62.30;100679.75;4908516;28;121254;-85
2022/07/25 02:02:19;;;;;;;13.45;11.40;;;;;;;22.93;62.61;100685.78;4894336;28;122639;-84
2022/07/25 02:04:53;;;;;;;15.52;13.43;;;;;;;22.93;61.95;100685.78;4905979;28;121346;-84
2022/07/25 02:07:19;;;;;;;15.65;12.20;;;;;;;22.96;62.23;100685.50;4909879;28;121143;-86
2022/07/25 02:09:45;;;;;;;13.88;12.02;;;;;;;22.99;62.61;100686.47;4896964;28;121444;-85
2022/07/25 02:12:11;;;;;;;13.70;12.27;;;;;;;23.00;62.47;100685.16;4878240;28;121466;-85
2022/07/25 02:14:37;;;;;;;12.02;10.80;;;;;;;23.02;62.24;100687.44;4929391;28;121497;-86
2022/07/25 02:17:02;;;;;;;13.32;11.63;;;;;;;23.01;62.46;100678.28;4929535;28;120987;-85
2022/07/25 02:19:28;;;;;;;15.13;12.85;;;;;;;23.05;62.09;100684.31;4912434;28;121231;-85
2022/07/25 02:21:54;;;;;;;13.82;11.90;;;;;;;23.01;61.51;100669.13;4896009;28;121282;-85
2022/07/25 02:24:19;;;;;;;13.35;11.40;;;;;;;23.04;62.08;100666.00;4893535;28;121889;-84
2022/07/25 02:26:45;;;;;;;15.00;12.15;;;;;;;23.08;61.75;100669.25;4892581;28;121355;-85
2022/07/25 02:29:11;;;;;;;13.90;11.13;;;;;;;23.04;61.87;100657.63;4922292;28;122207;-84
2022/07/25 02:31:36;;;;;;;12.93;10.40;;;;;;;23.07;61.72;100653.00;4915081;28;121264;-85
2022/07/25 02:34:03;;;;;;;12.70;11.20;;;;;;;23.07;61.85;100653.00;4913429;28;122996;-86
2022/07/25 02:36:28;;;;;;;14.38;12.25;;;;;;;23.06;61.57;100643.09;4884862;28;122966;-84
2022/07/25 02:38:54;;;;;;;13.55;10.77;;;;;;;23.04;61.56;100635.25;4893629;28;122440;-84
2022/07/25 02:41:20;;;;;;;12.55;10.38;;;;;;;23.00;61.91;100640.41;4909466;28;121853;-86
2022/07/25 02:43:45;;;;;;;14.10;10.98;;;;;;;22.98;62.45;100631.81;4915939;28;121232;-85
2022/07/25 02:46:11;;;;;;;13.15;11.75;;;;;;;22.98;61.90;100637.41;4932865;28;121312;-85
2022/07/25 02:48:37;;;;;;;12.40;10.80;;;;;;;23.02;62.55;100629.44;4903026;28;123541;-84
2022/07/25 02:51:03;;;;;;;12.60;10.57;;;;;;;23.00;62.02;100625.69;4912115;28;121643;-85
2022/07/25 02:53:29;;;;;;;12.40;10.90;;;;;;;22.90;62.37;100614.16;4901648;28;122140;-85
2022/07/25 02:55:57;;;;;;;13.35;11.10;;;;;;;22.95;62.43;100619.66;4896491;28;121158;-84
2022/07/25 02:58:22;;;;;;;13.20;11.77;;;;;;;22.99;61.91;100616.53;4895275;28;121521;-85
2022/07/25 03:00:48;;;;;;;13.93;11.63;;;;;;;22.81;61.88;100583.81;4906970;28;121419;-86
2022/07/25 03:03:14;;;;;;;13.95;11.80;;;;;;;22.82;62.08;100574.16;4904583;28;121294;-84
2022/07/25 03:05:39;;;;;;;12.15;10.93;;;;;;;23.02;61.96;100595.88;4891965;28;121454;-85
2022/07/25 03:08:05;;;;;;;12.45;11.25;;;;;;;22.97;62.37;100588.34;4892428;28;122034;-84
2022/07/25 03:10:31;;;;;;;12.52;11.27;;;;;;;22.99;62.37;100594.16;4898634;28;121697;-84
2022/07/25 03:12:57;;;;;;;13.48;11.75;;;;;;;22.95;62.28;100590.94;4911193;28;121328;-84
2022/07/25 03:15:22;;;;;;;14.07;12.52;;;;;;;22.98;62.38;100592.66;4896140;28;121121;-84
2022/07/25 03:17:48;;;;;;;14.20;11.73;;;;;;;22.96;62.64;100589.66;4917288;28;121681;-84
2022/07/25 03:20:14;;;;;;;14.15;12.27;;;;;;;22.95;62.29;100588.88;4909264;28;122035;-85
2022/07/25 03:22:41;;;;;;;13.38;11.95;;;;;;;22.94;63.00;100586.59;4892219;28;120986;-85
2022/07/25 03:25:10;;;;;;;12.15;10.85;;;;;;;22.96;63.03;100578.47;4895767;28;121156;-84
2022/07/25 03:27:36;;;;;;;13.88;11.88;;;;;;;22.96;62.91;100578.47;4895753;28;121453;-85
2022/07/25 03:30:02;;;;;;;15.98;12.70;;;;;;;22.92;62.40;100584.34;4888426;28;121084;-86
2022/07/25 03:32:28;;;;;;;16.42;12.40;;;;;;;22.86;62.96;100566.94;4912332;28;120979;-85
2022/07/25 03:34:54;;;;;;;13.45;11.65;;;;;;;22.96;62.83;100581.25;4911115;28;121975;-86
2022/07/25 03:37:20;;;;;;;13.30;11.40;;;;;;;22.91;63.28;100571.66;4911437;28;121096;-85
2022/07/25 03:39:46;;;;;;;14.88;12.63;;;;;;;22.93;62.46;100568.31;4912943;28;120998;-86
2022/07/25 03:42:12;;;;;;;12.35;11.05;;;;;;;22.98;62.69;100573.06;4911616;28;121323;-84
2022/07/25 03:44:37;;;;;;;13.65;11.82;;;;;;;22.98;63.43;100563.94;4920830;28;121149;-85
2022/07/25 03:47:04;;;;;;;13.88;11.60;;;;;;;22.95;63.00;100560.16;4926348;28;121892;-84
2022/07/25 03:49:30;;;;;;;15.13;11.98;;;;;;;22.95;63.12;100560.94;4913146;28;121084;-84
2022/07/25 03:51:55;;;;;;;13.05;11.73;;;;;;;22.94;63.37;100553.78;4910602;28;121528;-84
2022/07/25 03:54:21;;;;;;;13.05;11.77;;;;;;;22.95;63.51;100560.16;4895432;28;121933;-84
2022/07/25 03:56:49;;;;;;;13.45;11.98;;;;;;;22.98;63.21;100561.13;4904318;28;121152;-84
2022/07/25 03:59:17;;;;;;;19.02;12.13;;;;;;;22.97;63.24;100554.78;4899451;28;121509;-85
2022/07/25 04:01:50;;;;;;;16.00;12.85;;;;;;;23.00;63.16;100545.31;4899710;28;124533;-84
2022/07/25 04:04:17;;;;;;;15.60;12.02;;;;;;;23.03;63.58;100544.22;4893996;28;121275;-85
2022/07/25 04:06:44;;;;;;;12.82;11.52;;;;;;;23.02;63.79;100536.38;4900129;28;122287;-85
2022/07/25 04:09:11;;;;;;;13.40;12.10;;;;;;;23.00;63.32;100527.78;4902156;28;121513;-84
2022/07/25 04:11:37;;;;;;;14.07;12.40;;;;;;;23.08;63.46;100529.38;4911543;28;121376;-84
2022/07/25 04:14:03;;;;;;;16.35;11.98;;;;;;;23.10;62.92;100528.81;4895455;28;121848;-85
2022/07/25 04:16:29;;;;;;;13.93;12.38;;;;;;;23.00;63.23;100505.41;4931779;28;121247;-85
2022/07/25 04:18:56;;;;;;;13.20;11.73;;;;;;;23.11;63.33;100516.34;4902918;28;122116;-85
2022/07/25 04:21:22;;;;;;;13.30;11.90;;;;;;;23.08;62.79;100506.22;4893888;28;121385;-84
2022/07/25 04:23:48;;;;;;;13.02;11.73;;;;;;;23.14;63.24;100510.41;4912718;28;121460;-84
2022/07/25 04:26:15;;;;;;;13.73;12.13;;;;;;;23.12;63.27;100501.81;4909780;28;121478;-84
2022/07/25 04:28:41;;;;;;;13.95;12.55;;;;;;;23.12;63.10;100507.41;4910766;28;121490;-84
2022/07/25 04:31:06;;;;;;;16.95;13.10;;;;;;;23.13;63.64;100494.91;4907744;28;121674;-84
2022/07/25 04:33:35;;;;;;;14.57;12.63;;;;;;;23.14;63.31;100493.63;4890753;28;121377;-84
2022/07/25 04:36:00;;;;;;;13.02;11.65;;;;;;;23.19;63.38;100484.38;4891563;28;121711;-84
2022/07/25 04:38:26;;;;;;;13.75;11.45;;;;;;;23.26;63.25;100489.28;4892506;28;124433;-84
2022/07/25 04:40:52;;;;;;;15.45;12.13;;;;;;;23.28;63.29;100492.28;4908209;28;122664;-85
2022/07/25 04:43:19;;;;;;;13.52;11.55;;;;;;;23.33;62.95;100487.84;4910814;28;121685;-85
2022/07/25 04:45:44;;;;;;;13.98;12.50;;;;;;;23.37;62.89;100493.09;4913331;28;121754;-84
2022/07/25 04:48:10;;;;;;;12.55;11.35;;;;;;;23.41;62.61;100482.31;4911636;28;120904;-84
2022/07/25 04:50:36;;;;;;;12.38;11.07;;;;;;;23.43;62.91;100486.09;4893877;28;121712;-84
2022/07/25 04:53:02;;;;;;;13.32;11.93;;;;;;;23.46;62.32;100481.47;4909144;28;122483;-85
2022/07/25 04:55:28;;;;;;;14.57;11.85;;;;;;;23.52;61.95;100470.88;4913398;28;121415;-84
2022/07/25 04:57:53;;;;;;;14.23;11.15;;;;;;;23.60;62.49;100468.91;4929791;28;121617;-84
2022/07/25 05:00:19;;;;;;;14.10;11.75;;;;;;;23.64;62.39;100460.91;4909818;28;121601;-84
2022/07/25 05:02:48;;;;;;;14.98;11.98;;;;;;;23.77;61.77;100460.09;4909510;28;121692;-85
2022/07/25 05:05:13;;;;;;;15.00;11.70;;;;;;;23.83;61.88;100455.84;4913804;28;121607;-83
2022/07/25 05:07:39;;;;;;;14.18;11.15;;;;;;;23.91;61.41;100452.38;4903170;28;122393;-83
2022/07/25 05:10:05;;;;;;;14.85;12.13;;;;;;;23.85;61.83;100436.44;4907243;28;121685;-84
2022/07/25 05:12:31;;;;;;;14.95;11.60;;;;;;;23.86;61.27;100432.34;4909733;28;121834;-85
2022/07/25 05:14:57;;;;;;;12.80;11.38;;;;;;;23.96;61.78;100432.59;4899082;28;121594;-86
2022/07/25 05:17:22;;;;;;;12.57;10.65;;;;;;;24.07;61.79;100451.91;4922368;28;121866;-86
2022/07/25 05:19:48;;;;;;;14.10;11.05;;;;;;;24.08;61.94;100442.19;4909351;28;122776;-84
2022/07/25 05:22:14;;;;;;;13.07;10.65;;;;;;;24.16;61.44;100442.25;4889696;28;122820;-85
2022/07/25 05:24:40;;;;;;;12.23;10.43;;;;;;;24.23;60.83;100449.22;4890469;28;121939;-85
2022/07/25 05:27:06;;;;;;;12.52;11.05;;;;;;;24.33;61.23;100444.59;4908386;28;122762;-84
2022/07/25 05:29:32;;;;;;;12.90;9.63;;;;;;;24.35;61.32;100442.75;4908199;28;123797;-83
2022/07/25 05:31:58;;;;;;;11.57;10.38;;;;;;;24.41;61.06;100451.78;4890906;28;122478;-84
2022/07/25 05:34:24;;;;;;;12.57;10.30;;;;;;;24.48;60.96;100444.69;4908445;28;122164;-84
2022/07/25 05:36:49;;;;;;;13.35;9.90;;;;;;;24.46;60.62;100431.22;4891181;28;122813;-85
2022/07/25 05:39:15;;;;;;;10.40;9.40;;;;;;;24.60;59.56;100437.44;4907629;28;122511;-84
2022/07/25 05:41:44;;;;;;;11.10;9.93;;;;;;;24.67;59.44;100433.94;4908116;28;122296;-84
2022/07/25 05:44:10;;;;;;;10.80;9.70;;;;;;;24.61;59.44;100413.00;4891336;28;121974;-84
2022/07/25 05:46:36;;;;;;;11.02;9.88;;;;;;;24.76;60.08;100435.47;4910822;28;121586;-84
2022/07/25 05:49:01;;;;;;;12.80;10.48;;;;;;;24.67;59.71;100410.75;4897466;28;122250;-83
2022/07/25 05:51:27;;;;;;;10.82;9.73;;;;;;;24.80;59.29;100427.44;4896614;28;123599;-85
2022/07/25 05:53:56;;;;;;;11.00;9.30;;;;;;;24.87;59.20;100420.34;4921748;28;121988;-85
2022/07/25 05:56:25;;;;;;;11.32;9.75;;;;;;;24.92;59.59;100425.03;4931542;28;121881;-84
2022/07/25 05:58:51;;;;;;;13.90;9.75;;;;;;;24.95;58.89;100419.06;4917979;28;123222;-84
2022/07/25 06:01:17;;;;;;;11.70;9.50;;;;;;;24.98;58.84;100412.31;4893079;28;122024;-84
2022/07/25 06:03:43;;;;;;;11.68;8.88;;;;;;;25.04;58.71;100407.31;4893703;28;121756;-84
2022/07/25 06:06:09;;;;;;;9.40;8.40;;;;;;;25.08;58.40;100404.91;4892375;28;122421;-84
2022/07/25 06:08:35;;;;;;;11.27;8.88;;;;;;;25.11;58.03;100394.63;4880676;28;122504;-85
2022/07/25 06:11:03;;;;;;;10.70;8.52;;;;;;;25.14;57.95;100384.34;4883364;28;121756;-85
2022/07/25 06:13:29;;;;;;;9.55;8.45;;;;;;;25.08;57.79;100376.84;4908661;28;121827;-84
2022/07/25 06:15:55;;;;;;;8.55;7.72;;;;;;;25.23;57.58;100392.94;4904149;28;122004;-83
2022/07/25 06:18:21;;;;;;;9.60;8.40;;;;;;;25.31;57.88;100381.72;4892574;28;124350;-85
2022/07/25 06:20:47;;;;;;;9.43;7.70;;;;;;;25.40;57.52;100384.72;4912347;28;122023;-85
2022/07/25 06:23:14;;;;;;;8.50;7.70;;;;;;;25.49;57.33;100369.34;4884708;28;121939;-84
2022/07/25 06:25:39;;;;;;;10.52;7.93;;;;;;;25.60;56.40;100373.84;4912592;28;121936;-84
2022/07/25 06:28:05;;;;;;;8.55;7.68;;;;;;;25.60;56.70;100365.44;4905622;28;122199;-84
2022/07/25 06:30:31;;;;;;;10.20;7.95;;;;;;;25.73;56.80;100365.22;4907000;28;122149;-84
2022/07/25 06:33:00;;;;;;;8.18;7.38;;;;;;;25.70;55.75;100350.25;4916052;28;122125;-84
2022/07/25 06:35:25;;;;;;;9.05;8.15;;;;;;;25.84;55.46;100364.09;4895612;28;124629;-84
2022/07/25 06:37:51;;;;;;;9.23;7.78;;;;;;;25.78;55.06;100355.84;4909863;28;123552;-85
2022/07/25 06:40:20;;;;;;;8.48;7.53;;;;;;;25.82;54.85;100358.31;4909955;28;121636;-85
2022/07/25 06:42:48;;;;;;;8.30;7.18;;;;;;;25.89;54.45;100371.59;4896696;28;122252;-85
2022/07/25 06:45:15;;;;;;;9.02;7.28;;;;;;;25.85;53.99;100362.78;4891112;28;122844;-84
2022/07/25 06:47:47;;;;;;;8.23;6.80;;;;;;;25.46;54.02;100317.13;4893542;28;122060;-85
2022/07/25 06:50:17;;;;;;;8.95;7.75;;;;;;;25.74;54.29;100351.94;4889631;28;121802;-76
2022/07/25 06:52:43;;;;;;;9.07;7.65;;;;;;;25.70;54.51;100355.13;4890394;28;124646;-76
2022/07/25 06:55:10;;;;;;;10.93;7.88;;;;;;;25.65;54.80;100359.59;4899684;28;122204;-75
2022/07/25 06:57:36;;;;;;;9.88;7.38;;;;;;;25.60;54.80;100352.13;4909914;28;122444;-76
2022/07/25 07:00:08;;;;;;;9.55;7.80;;;;;;;25.58;55.23;100346.34;4910829;28;122114;-76
2022/07/25 07:02:33;;;;;;;9.20;7.80;;;;;;;25.55;55.03;100341.84;4908756;28;121847;-76
2022/07/25 07:05:23;;;;;;;9.55;7.18;;;;;;;25.54;55.55;100340.31;4901621;28;123518;-76
2022/07/25 07:07:49;;;;;;;9.70;7.28;;;;;;;25.54;54.88;100331.16;4908118;28;122435;-76
2022/07/25 07:10:16;;;;;;;8.27;7.18;;;;;;;25.54;55.18;100334.72;4906861;28;122362;-76
2022/07/25 07:12:43;;;;;;;9.70;6.70;;;;;;;25.56;54.82;100334.91;4921310;28;122695;-75
2022/07/25 07:15:10;;;;;;;8.35;7.30;;;;;;;25.57;55.04;100327.25;4914149;28;122307;-76
2022/07/25 07:17:36;;;;;;;10.68;7.55;;;;;;;25.66;55.24;100335.81;4904806;28;122343;-76
2022/07/25 07:20:03;;;;;;;9.93;7.25;;;;;;;25.66;54.53;100315.41;4908971;28;122501;-76
2022/07/25 07:22:29;;;;;;;9.27;7.18;;;;;;;25.74;54.92;100318.97;4909701;28;122127;-76
2022/07/25 07:24:54;;;;;;;7.47;6.72;;;;;;;25.79;54.72;100320.09;4908004;28;122420;-75
2022/07/25 07:27:22;;;;;;;7.35;6.65;;;;;;;25.88;54.42;100322.31;4900871;28;121937;-76
2022/07/25 07:29:48;;;;;;;8.13;7.30;;;;;;;25.95;54.27;100318.72;4906266;28;122459;-76
2022/07/25 07:32:14;;;;;;;8.00;7.20;;;;;;;26.03;53.61;100318.72;4902986;28;125602;-76
2022/07/25 07:34:40;;;;;;;10.77;7.18;;;;;;;26.09;53.72;100316.44;4910149;28;122106;-76
2022/07/25 07:37:06;;;;;;;7.78;6.97;;;;;;;26.14;53.55;100312.66;4913188;28;122128;-76
2022/07/25 07:39:31;;;;;;;9.15;6.68;;;;;;;26.21;53.16;100309.81;4907842;28;121913;-76
2022/07/25 07:41:57;;;;;;;8.13;6.18;;;;;;;26.27;52.62;100312.44;4910582;28;122423;-76
2022/07/25 07:44:23;;;;;;;7.35;6.57;;;;;;;26.40;51.81;100314.25;4910267;28;122081;-76
2022/07/25 07:46:49;;;;;;;8.30;6.30;;;;;;;26.51;51.43;100316.66;4908452;28;122037;-76
2022/07/25 07:49:17;;;;;;;7.38;6.22;;;;;;;26.56;50.99;100296.00;4905688;28;122010;-76
2022/07/25 07:51:43;;;;;;;7.70;5.93;;;;;;;26.68;50.27;100299.09;4907618;28;123395;-76
2022/07/25 07:56:53;;;;;;;7.20;6.10;;;;;;;26.79;49.88;100293.78;4890187;28;121909;-76
2022/07/25 07:59:18;;;;;;;8.68;6.30;;;;;;;26.84;49.79;100292.03;4924712;28;122889;-76
2022/07/25 08:01:44;;;;;;;7.63;6.53;;;;;;;26.88;49.35;100281.13;4906557;28;122490;-76
2022/07/25 08:04:10;;;;;;;9.27;6.50;;;;;;;27.02;48.94;100296.44;4908001;28;121968;-76
2022/07/25 08:06:36;;;;;;;8.57;6.22;;;;;;;27.14;48.80;100291.06;4907470;28;122121;-76
2022/07/25 08:09:02;;;;;;;7.28;6.22;;;;;;;27.32;49.13;100284.16;4907522;28;123303;-76
2022/07/25 08:11:28;;;;;;;6.65;5.95;;;;;;;27.46;48.28;100276.16;4908738;28;123011;-76
2022/07/25 08:13:54;;;;;;;7.85;6.30;;;;;;;27.53;47.56;100276.06;4907240;28;122196;-76
2022/07/25 08:16:20;;;;;;;7.85;6.30;;;;;;;27.61;49.07;100269.59;4904946;28;122513;-76
2022/07/25 08:18:48;;;;;;;9.25;6.03;;;;;;;27.73;47.50;100267.78;4906022;28;121969;-76
2022/07/25 08:21:13;;;;;;;6.63;6.00;;;;;;;27.92;48.58;100273.59;4907287;28;122525;-76
2022/07/25 08:23:39;;;;;;;;;;;;;;;28.20;48.27;100263.06;4907307;28;122618;-76
2022/07/25 08:26:05;;;;;;;;;;;;;;;28.43;47.74;100263.53;4909435;28;122240;-76
2022/07/25 08:28:33;;;;;;;;;;;;;;;28.64;47.12;100257.38;4908416;28;122470;-76
2022/07/25 08:30:59;;;;;;;;;;;;;;;28.82;47.32;100253.13;4909061;28;123030;-76
2022/07/25 08:33:25;;;;;;;;;;;;;;;28.90;45.36;100255.88;4901687;28;122477;-76
2022/07/25 08:35:52;;;;;;;;;;;;;;;28.88;45.67;100248.00;4908568;28;122281;-76
2022/07/25 08:38:18;;;;;;;;;;;;;;;28.87;46.54;100251.41;4905546;28;122322;-76
2022/07/25 08:40:44;;;;;;;;;;;;;;;28.89;46.49;100245.91;4907026;28;122265;-76
2022/07/25 08:43:10;;;;;;;;;;;;;;;28.98;46.44;100250.81;4906088;28;122264;-76
2022/07/25 08:45:40;;;;;;;;;;;;;;;29.12;45.86;100257.56;4903903;28;122418;-76
2022/07/25 08:48:06;;;;;;;;;;;;;;;29.15;45.65;100259.19;4903970;28;122026;-76
2022/07/25 08:50:31;;;;;;;;;;;;;;;29.15;45.83;100252.81;4917792;28;122459;-76
2022/07/25 08:52:57;;;;;;;;;;;;;;;29.12;45.34;100256.81;4902983;28;122807;-76
2022/07/25 08:55:23;;;;;;;;;;;;;;;29.10;45.84;100260.19;4900775;28;121807;-76
2022/07/25 08:57:51;;;;;;;;;;;;;;;29.10;46.37;100260.19;4902384;28;122176;-76
2022/07/25 09:00:21;;;;;;;;;;;;;;;29.12;46.25;100254.72;4904293;28;122160;-75
2022/07/25 09:02:51;;;;;;;;;;;;;;;29.10;45.91;100256.63;4907700;28;122544;-76
2022/07/25 09:05:17;;;;;;;;;;;;;;;29.07;46.54;100246.53;4907258;28;121978;-76
2022/07/25 09:07:43;;;;;;;;;;;;;;;29.09;46.39;100261.53;4909131;28;122120;-76
2022/07/25 09:10:31;;;;;;;;;;;;;;;29.07;46.17;100255.75;4874318;28;122553;-76
2022/07/25 09:13:01;;;;;;;;;;;;;;;28.98;46.16;100248.00;4866196;28;122210;-76
2022/07/25 09:15:26;;;;;;;;;;;;;;;28.92;46.30;100248.28;4868157;28;123185;-76
2022/07/25 09:17:53;;;;;;;;;;;;;;;28.94;46.70;100242.81;4849048;28;122496;-76
2022/07/25 09:20:20;;;;;;;;;;;;;;;29.02;46.68;100245.47;4868816;28;122226;-76
2022/07/25 09:22:45;;;;;;;;;;;;;;;29.13;47.07;100232.88;4867070;28;122607;-76
2022/07/25 09:25:21;;;;;;;;;;;;;;;29.23;46.90;100237.19;4870132;28;123243;-76
2022/07/25 09:27:46;;;;;;;;;;;;;;;29.30;46.34;100247.59;4868096;28;122297;-76
2022/07/25 09:30:13;;;;;;;;;;;;;;;29.33;46.12;100240.03;4866399;28;122439;-76
2022/07/25 09:32:38;;;;;;;;;;;;;;;29.38;46.60;100232.63;4865407;28;122703;-76
2022/07/25 09:35:04;;;;;;;;;;;;;;;29.45;46.40;100237.41;4867825;28;122580;-76
2022/07/25 09:37:30;;;;;;;;;;;;;;;29.49;46.65;100235.59;4865409;28;122452;-76
2022/07/25 09:39:55;;;;;;;;;;;;;;;29.54;46.08;100233.81;4862525;28;122354;-76
2022/07/25 09:42:21;;;;;;;;;;;;;;;29.62;46.21;100238.00;4852995;28;123065;-76
2022/07/25 09:45:15;;;;;;;;;;;;;;;29.62;46.15;100235.16;4850275;28;122480;-76
2022/07/25 09:47:52;;;;;;;;;;;;;;;29.59;46.08;100227.13;4884324;28;122511;-76
2022/07/25 09:50:18;;;;;;;;;;;;;;;29.64;46.60;100226.09;4898909;28;122822;-76
2022/07/25 09:52:45;;;;;;;;;;;;;;;29.74;46.62;100229.63;4903328;28;122346;-76
2022/07/25 09:55:12;;;;;;;;;;;;;;;29.88;46.40;100216.53;4905004;28;122099;-76
2022/07/25 09:57:38;;;;;;;;;;;;;;;30.08;46.64;100222.19;4904070;28;122236;-76
2022/07/25 10:00:05;;;;;;;;;;;;;;;30.27;45.82;100219.28;4898003;28;122955;-76
2022/07/25 10:02:45;;;;;;;;;;;;;;;30.46;45.50;100219.19;4902532;28;122435;-76
2022/07/25 10:05:16;;;;;;;;;;;;;;;30.58;44.62;100218.56;4899237;28;122234;-76
2022/07/25 10:07:44;;;;;;;;;;;;;;;30.70;45.16;100225.81;4904088;28;124426;-76
2022/07/25 10:10:20;;;;;;;;;;;;;;;30.73;44.20;100218.94;4910409;28;121890;-76
2022/07/25 10:12:57;;;;;;;;;;;;;;;30.80;43.96;100222.97;4920742;28;122012;-76
2022/07/25 10:15:22;;;;;;;;;;;;;;;30.77;43.36;100221.34;4906932;28;122425;-76
2022/07/25 10:17:50;;;;;;;;;;;;;;;30.71;43.61;100215.25;4906682;28;122390;-76
2022/07/25 10:20:26;;;;;;;;;;;;;;;30.76;44.07;100205.69;4906877;28;122971;-76
2022/07/25 10:22:51;;;;;;;;;;;;;;;30.90;44.09;100208.72;4905394;28;122039;-76
2022/07/25 10:25:18;;;;;;;;;;;;;;;30.89;43.65;100196.66;4902697;28;122079;-76
2022/07/25 10:27:47;;;;;;;;;;;;;;;30.81;43.79;100190.47;4902194;28;123011;-76
2022/07/25 10:30:23;;;;;;;;;;;;;;;30.71;44.52;100189.75;4903838;28;121973;-76
2022/07/25 10:33:14;;;;;;;;;;;;;;;30.63;44.63;100180.72;4890621;28;123173;-76
2022/07/25 10:35:40;;;;;;;;;;;;;;;30.62;44.08;100196.22;4897474;28;123913;-76
2022/07/25 10:38:05;;;;;;;;;;;;;;;30.62;44.01;100194.16;4903151;28;122544;-76
2022/07/25 10:40:33;;;;;;;;;;;;;;;30.63;43.50;100197.72;4911972;28;122133;-76
2022/07/25 10:43:18;;;;;;;;;;;;;;;30.59;43.09;100203.06;4903976;28;122011;-76
2022/07/25 10:45:51;;;;;;;;;;;;;;;30.50;43.60;100207.41;4903609;28;122549;-76
2022/07/25 10:48:36;;;;;;;;;;;;;;;30.49;43.43;100205.94;4887271;28;122103;-76
2022/07/25 10:51:09;;;;;;;;;;;;;;;30.56;43.57;100193.72;4898261;28;122623;-76
2022/07/25 10:53:42;;;;;;;;;;;;;;;30.61;43.80;100195.50;4901548;28;122639;-76
2022/07/25 10:56:09;;;;;;;;;;;;;;;30.64;43.49;100182.97;4905944;28;122130;-76
2022/07/25 10:58:46;;;;;;;;;;;;;;;30.65;43.27;100190.09;4900112;28;122855;-76
2022/07/25 11:01:18;;;;;;;;;;;;;;;30.55;43.56;100187.31;4900383;28;122392;-76
2022/07/25 11:03:43;;;;;;;;;;;;;;;30.43;43.49;100182.88;4903880;28;122476;-76
2022/07/25 11:06:10;;;;;;;;;;;;;;;30.37;43.58;100191.72;4902055;28;122683;-76
2022/07/25 11:08:36;;;;;;;;;;;;;;;30.35;43.63;100188.75;4913011;28;122110;-76
2022/07/25 11:11:02;;;;;;;;;;;;;;;30.30;43.80;100172.84;4901602;28;121891;-76
2022/07/25 11:13:27;;;;;;;;;;;;;;;30.28;43.96;100181.16;4902041;28;122941;-76
2022/07/25 11:15:57;;;;;;;;;;;;;;;30.29;44.22;100193.97;4908141;28;121994;-76
2022/07/25 11:18:39;;;;;;;;;;;;;;;30.29;44.66;100201.72;4899801;28;122050;-76
2022/07/25 11:21:06;;;;;;;;;;;;;;;30.19;44.14;100194.00;4900651;28;122372;-76
2022/07/25 11:23:32;;;;;;;;;;;;;;;30.08;44.72;100196.72;4902824;28;123556;-76
2022/07/25 11:26:07;;;;;;;;;;;;;;;29.93;44.97;100192.13;4897984;28;122499;-76
2022/07/25 11:28:38;;;;;;;;;;;;;;;29.80;45.33;100184.84;4900993;28;122149;-76
2022/07/25 11:31:04;;;;;;;;;;;;;;;29.76;46.03;100184.56;4900378;28;122028;-76